Qtas de Flamingo, Puerto Rico
Current Conditions -  °F | °C
As of 1:04 AM on Saturday 22 Nov 2014 (Local Time) from TJSJ Reporting Station
Heavy Rain Heavy Rain  
Wind Chill: 75°   Ceiling: 2700
Heat Index: 75°   Visibility: 1mi
Dew Point: 73°   Wind: 15mph
Humidity: 94%   Direction: 110°ESE
Pressure: 30.02"   Gusts: 22mph
Location:  18.1781°N, 66.1167°W
Report Text: TJSJ 220504Z 11013G19KT 1SM +RA BR FEW016 SCT022 BKN027 24/23 A3002 RMK AO2 RAB01 VCSH N SE-S P0004
Loading
Personal Weather Stations






























Interactive Weather Map New forecast layout! Learn more

10-Day Weather Forecast

Advertisements
Track Severe Weather on mobile